sensor_id;sensor_type;location;lat;lon;timestamp;P1;durP1;ratioP1;P2;durP2;ratioP2
68484;SDS011;55472;50.060;21.960;2023-05-10T00:02:15;17.70;;;7.43;;
68484;SDS011;55472;50.060;21.960;2023-05-10T00:04:41;19.83;;;7.68;;
68484;SDS011;55472;50.060;21.960;2023-05-10T00:07:07;18.43;;;7.40;;
68484;SDS011;55472;50.060;21.960;2023-05-10T00:09:33;19.63;;;7.40;;
68484;SDS011;55472;50.060;21.960;2023-05-10T00:11:59;21.73;;;7.40;;
68484;SDS011;55472;50.060;21.960;2023-05-10T00:14:25;18.77;;;7.15;;
68484;SDS011;55472;50.060;21.960;2023-05-10T00:16:51;18.20;;;7.27;;
68484;SDS011;55472;50.060;21.960;2023-05-10T00:19:18;20.90;;;7.53;;
68484;SDS011;55472;50.060;21.960;2023-05-10T00:21:44;18.13;;;7.25;;
68484;SDS011;55472;50.060;21.960;2023-05-10T00:24:10;16.95;;;6.70;;
68484;SDS011;55472;50.060;21.960;2023-05-10T00:26:36;19.45;;;7.70;;
68484;SDS011;55472;50.060;21.960;2023-05-10T00:29:02;21.33;;;6.90;;
68484;SDS011;55472;50.060;21.960;2023-05-10T00:31:28;18.73;;;7.03;;
68484;SDS011;55472;50.060;21.960;2023-05-10T00:33:54;15.95;;;6.95;;
68484;SDS011;55472;50.060;21.960;2023-05-10T00:36:21;17.80;;;6.85;;
68484;SDS011;55472;50.060;21.960;2023-05-10T00:38:47;19.05;;;7.18;;
68484;SDS011;55472;50.060;21.960;2023-05-10T00:41:13;18.10;;;6.93;;
68484;SDS011;55472;50.060;21.960;2023-05-10T00:43:39;20.88;;;7.63;;
68484;SDS011;55472;50.060;21.960;2023-05-10T00:46:05;18.85;;;7.47;;
68484;SDS011;55472;50.060;21.960;2023-05-10T00:48:32;18.90;;;7.13;;
68484;SDS011;55472;50.060;21.960;2023-05-10T00:50:58;19.88;;;6.75;;
68484;SDS011;55472;50.060;21.960;2023-05-10T00:53:26;18.70;;;7.00;;
68484;SDS011;55472;50.060;21.960;2023-05-10T00:55:52;19.40;;;7.55;;
68484;SDS011;55472;50.060;21.960;2023-05-10T00:58:19;16.42;;;6.63;;
68484;SDS011;55472;50.060;21.960;2023-05-10T01:03:20;17.15;;;6.65;;
68484;SDS011;55472;50.060;21.960;2023-05-10T01:05:47;24.03;;;7.20;;
68484;SDS011;55472;50.060;21.960;2023-05-10T01:08:13;20.42;;;7.70;;
68484;SDS011;55472;50.060;21.960;2023-05-10T01:10:39;14.75;;;6.68;;
68484;SDS011;55472;50.060;21.960;2023-05-10T01:13:07;17.60;;;6.85;;
68484;SDS011;55472;50.060;21.960;2023-05-10T01:15:33;15.40;;;6.60;;
68484;SDS011;55472;50.060;21.960;2023-05-10T01:18:00;14.10;;;6.30;;
68484;SDS011;55472;50.060;21.960;2023-05-10T01:20:28;16.10;;;6.55;;
68484;SDS011;55472;50.060;21.960;2023-05-10T01:23:17;15.32;;;6.53;;
68484;SDS011;55472;50.060;21.960;2023-05-10T01:29:06;15.65;;;6.07;;
68484;SDS011;55472;50.060;21.960;2023-05-10T01:34:59;15.27;;;6.07;;
68484;SDS011;55472;50.060;21.960;2023-05-10T01:37:39;17.42;;;5.93;;
68484;SDS011;55472;50.060;21.960;2023-05-10T01:40:17;16.73;;;5.78;;
68484;SDS011;55472;50.060;21.960;2023-05-10T01:42:53;14.27;;;6.15;;
68484;SDS011;55472;50.060;21.960;2023-05-10T01:45:40;16.53;;;6.27;;
68484;SDS011;55472;50.060;21.960;2023-05-10T01:48:16;16.23;;;6.30;;
68484;SDS011;55472;50.060;21.960;2023-05-10T01:50:45;17.67;;;6.60;;
68484;SDS011;55472;50.060;21.960;2023-05-10T01:53:13;14.18;;;6.13;;
68484;SDS011;55472;50.060;21.960;2023-05-10T01:55:51;15.43;;;6.18;;
68484;SDS011;55472;50.060;21.960;2023-05-10T01:58:23;13.53;;;5.80;;
68484;SDS011;55472;50.060;21.960;2023-05-10T02:00:54;15.70;;;6.05;;
68484;SDS011;55472;50.060;21.960;2023-05-10T02:03:24;16.17;;;5.88;;
68484;SDS011;55472;50.060;21.960;2023-05-10T02:05:53;16.75;;;6.20;;
68484;SDS011;55472;50.060;21.960;2023-05-10T02:08:20;12.63;;;5.45;;
68484;SDS011;55472;50.060;21.960;2023-05-10T02:10:48;12.20;;;5.47;;
68484;SDS011;55472;50.060;21.960;2023-05-10T02:13:17;13.80;;;5.03;;
68484;SDS011;55472;50.060;21.960;2023-05-10T02:15:46;13.15;;;5.43;;
68484;SDS011;55472;50.060;21.960;2023-05-10T02:18:14;15.23;;;4.93;;
68484;SDS011;55472;50.060;21.960;2023-05-10T02:20:41;12.63;;;5.93;;
68484;SDS011;55472;50.060;21.960;2023-05-10T02:23:11;13.63;;;5.70;;
68484;SDS011;55472;50.060;21.960;2023-05-10T02:25:38;12.25;;;4.85;;
68484;SDS011;55472;50.060;21.960;2023-05-10T02:28:05;12.68;;;5.30;;
68484;SDS011;55472;50.060;21.960;2023-05-10T02:30:34;13.63;;;5.25;;
68484;SDS011;55472;50.060;21.960;2023-05-10T02:33:01;12.73;;;5.35;;
68484;SDS011;55472;50.060;21.960;2023-05-10T02:35:30;13.60;;;5.53;;
68484;SDS011;55472;50.060;21.960;2023-05-10T02:37:59;12.90;;;5.18;;
68484;SDS011;55472;50.060;21.960;2023-05-10T02:40:26;14.18;;;5.32;;
68484;SDS011;55472;50.060;21.960;2023-05-10T02:42:54;12.15;;;4.95;;
68484;SDS011;55472;50.060;21.960;2023-05-10T02:45:23;12.70;;;5.00;;
68484;SDS011;55472;50.060;21.960;2023-05-10T02:47:54;13.43;;;4.87;;
68484;SDS011;55472;50.060;21.960;2023-05-10T02:50:21;11.73;;;5.22;;
68484;SDS011;55472;50.060;21.960;2023-05-10T02:52:51;12.43;;;5.25;;
68484;SDS011;55472;50.060;21.960;2023-05-10T02:55:26;11.40;;;5.43;;
68484;SDS011;55472;50.060;21.960;2023-05-10T02:57:59;14.80;;;5.93;;
68484;SDS011;55472;50.060;21.960;2023-05-10T03:00:26;12.40;;;4.70;;
68484;SDS011;55472;50.060;21.960;2023-05-10T03:02:53;12.68;;;5.22;;
68484;SDS011;55472;50.060;21.960;2023-05-10T03:05:20;13.40;;;5.40;;
68484;SDS011;55472;50.060;21.960;2023-05-10T03:07:46;15.00;;;5.00;;
68484;SDS011;55472;50.060;21.960;2023-05-10T03:10:13;12.73;;;5.28;;
68484;SDS011;55472;50.060;21.960;2023-05-10T03:17:57;10.90;;;4.60;;
68484;SDS011;55472;50.060;21.960;2023-05-10T03:20:47;12.30;;;5.30;;
68484;SDS011;55472;50.060;21.960;2023-05-10T03:23:21;12.40;;;4.97;;
68484;SDS011;55472;50.060;21.960;2023-05-10T03:25:53;12.50;;;5.03;;
68484;SDS011;55472;50.060;21.960;2023-05-10T03:28:20;13.35;;;5.40;;
68484;SDS011;55472;50.060;21.960;2023-05-10T03:30:47;12.43;;;4.95;;
68484;SDS011;55472;50.060;21.960;2023-05-10T03:33:13;11.70;;;4.93;;
68484;SDS011;55472;50.060;21.960;2023-05-10T03:35:39;10.63;;;4.95;;
68484;SDS011;55472;50.060;21.960;2023-05-10T03:38:06;14.57;;;5.00;;
68484;SDS011;55472;50.060;21.960;2023-05-10T03:40:32;12.90;;;5.10;;
68484;SDS011;55472;50.060;21.960;2023-05-10T03:42:59;13.35;;;5.13;;
68484;SDS011;55472;50.060;21.960;2023-05-10T03:45:25;11.35;;;5.03;;
68484;SDS011;55472;50.060;21.960;2023-05-10T03:47:51;13.65;;;5.47;;
68484;SDS011;55472;50.060;21.960;2023-05-10T03:50:18;10.63;;;5.03;;
68484;SDS011;55472;50.060;21.960;2023-05-10T03:52:44;12.88;;;5.70;;
68484;SDS011;55472;50.060;21.960;2023-05-10T03:55:10;10.05;;;4.97;;
68484;SDS011;55472;50.060;21.960;2023-05-10T03:57:37;15.15;;;5.63;;
68484;SDS011;55472;50.060;21.960;2023-05-10T04:00:03;12.10;;;5.20;;
68484;SDS011;55472;50.060;21.960;2023-05-10T04:02:30;13.23;;;5.27;;
68484;SDS011;55472;50.060;21.960;2023-05-10T04:04:57;12.68;;;5.38;;
68484;SDS011;55472;50.060;21.960;2023-05-10T04:07:23;12.18;;;5.10;;
68484;SDS011;55472;50.060;21.960;2023-05-10T04:09:49;12.35;;;5.13;;
68484;SDS011;55472;50.060;21.960;2023-05-10T04:12:15;13.50;;;5.40;;
68484;SDS011;55472;50.060;21.960;2023-05-10T04:14:41;10.50;;;4.90;;
68484;SDS011;55472;50.060;21.960;2023-05-10T04:17:07;12.00;;;5.07;;
68484;SDS011;55472;50.060;21.960;2023-05-10T04:19:35;12.75;;;5.47;;
68484;SDS011;55472;50.060;21.960;2023-05-10T04:22:02;15.02;;;5.68;;
68484;SDS011;55472;50.060;21.960;2023-05-10T04:24:28;14.05;;;5.82;;
68484;SDS011;55472;50.060;21.960;2023-05-10T04:26:54;14.17;;;5.27;;
68484;SDS011;55472;50.060;21.960;2023-05-10T04:29:20;13.85;;;5.57;;
68484;SDS011;55472;50.060;21.960;2023-05-10T04:31:47;14.27;;;5.35;;
68484;SDS011;55472;50.060;21.960;2023-05-10T04:34:13;13.45;;;5.65;;
68484;SDS011;55472;50.060;21.960;2023-05-10T04:36:40;12.85;;;5.15;;
68484;SDS011;55472;50.060;21.960;2023-05-10T04:39:06;13.27;;;5.77;;
68484;SDS011;55472;50.060;21.960;2023-05-10T04:41:32;11.43;;;5.38;;
68484;SDS011;55472;50.060;21.960;2023-05-10T04:43:58;14.70;;;5.50;;
68484;SDS011;55472;50.060;21.960;2023-05-10T04:46:24;14.07;;;6.00;;
68484;SDS011;55472;50.060;21.960;2023-05-10T04:48:50;13.77;;;5.50;;
68484;SDS011;55472;50.060;21.960;2023-05-10T04:51:16;11.13;;;4.70;;
68484;SDS011;55472;50.060;21.960;2023-05-10T04:53:42;12.77;;;5.35;;
68484;SDS011;55472;50.060;21.960;2023-05-10T04:56:09;11.13;;;5.00;;
68484;SDS011;55472;50.060;21.960;2023-05-10T04:58:35;11.35;;;4.93;;
68484;SDS011;55472;50.060;21.960;2023-05-10T05:01:05;10.27;;;4.90;;
68484;SDS011;55472;50.060;21.960;2023-05-10T05:03:35;10.63;;;4.77;;
68484;SDS011;55472;50.060;21.960;2023-05-10T05:06:02;12.38;;;5.05;;
68484;SDS011;55472;50.060;21.960;2023-05-10T05:08:28;11.13;;;4.50;;
68484;SDS011;55472;50.060;21.960;2023-05-10T05:10:54;12.43;;;5.00;;
68484;SDS011;55472;50.060;21.960;2023-05-10T05:13:20;12.50;;;5.53;;
68484;SDS011;55472;50.060;21.960;2023-05-10T05:15:47;10.70;;;4.60;;
68484;SDS011;55472;50.060;21.960;2023-05-10T05:18:13;12.75;;;4.75;;
68484;SDS011;55472;50.060;21.960;2023-05-10T05:20:39;12.43;;;4.95;;
68484;SDS011;55472;50.060;21.960;2023-05-10T05:23:05;10.68;;;4.50;;
68484;SDS011;55472;50.060;21.960;2023-05-10T05:25:31;11.97;;;5.03;;
68484;SDS011;55472;50.060;21.960;2023-05-10T05:27:57;11.95;;;5.10;;
68484;SDS011;55472;50.060;21.960;2023-05-10T05:30:24;11.95;;;4.97;;
68484;SDS011;55472;50.060;21.960;2023-05-10T05:32:50;12.18;;;4.85;;
68484;SDS011;55472;50.060;21.960;2023-05-10T05:35:16;11.32;;;4.28;;
68484;SDS011;55472;50.060;21.960;2023-05-10T05:37:42;11.20;;;5.17;;
68484;SDS011;55472;50.060;21.960;2023-05-10T05:40:11;9.00;;;4.20;;
68484;SDS011;55472;50.060;21.960;2023-05-10T05:42:38;11.15;;;3.95;;
68484;SDS011;55472;50.060;21.960;2023-05-10T05:45:04;10.13;;;5.00;;
68484;SDS011;55472;50.060;21.960;2023-05-10T05:47:33;12.65;;;4.90;;
68484;SDS011;55472;50.060;21.960;2023-05-10T05:50:00;8.40;;;4.03;;
68484;SDS011;55472;50.060;21.960;2023-05-10T05:52:26;10.38;;;4.68;;
68484;SDS011;55472;50.060;21.960;2023-05-10T05:54:52;11.48;;;4.30;;
68484;SDS011;55472;50.060;21.960;2023-05-10T05:57:18;9.88;;;4.28;;
68484;SDS011;55472;50.060;21.960;2023-05-10T05:59:44;12.07;;;4.90;;
68484;SDS011;55472;50.060;21.960;2023-05-10T06:02:11;9.37;;;4.23;;
68484;SDS011;55472;50.060;21.960;2023-05-10T06:04:37;10.30;;;4.15;;
68484;SDS011;55472;50.060;21.960;2023-05-10T06:07:03;11.00;;;4.05;;
68484;SDS011;55472;50.060;21.960;2023-05-10T06:09:29;7.90;;;4.00;;
68484;SDS011;55472;50.060;21.960;2023-05-10T06:11:56;14.68;;;5.03;;
68484;SDS011;55472;50.060;21.960;2023-05-10T06:14:22;10.35;;;3.75;;
68484;SDS011;55472;50.060;21.960;2023-05-10T06:16:48;7.83;;;3.80;;
68484;SDS011;55472;50.060;21.960;2023-05-10T06:19:15;13.80;;;5.82;;
68484;SDS011;55472;50.060;21.960;2023-05-10T06:21:41;8.90;;;3.90;;
68484;SDS011;55472;50.060;21.960;2023-05-10T06:24:07;8.13;;;3.53;;
68484;SDS011;55472;50.060;21.960;2023-05-10T06:26:33;7.35;;;2.92;;
68484;SDS011;55472;50.060;21.960;2023-05-10T06:28:59;8.93;;;3.10;;
68484;SDS011;55472;50.060;21.960;2023-05-10T06:31:26;9.93;;;2.85;;
68484;SDS011;55472;50.060;21.960;2023-05-10T06:33:52;8.20;;;2.35;;
68484;SDS011;55472;50.060;21.960;2023-05-10T06:36:18;6.28;;;2.20;;
68484;SDS011;55472;50.060;21.960;2023-05-10T06:38:45;6.28;;;2.75;;
68484;SDS011;55472;50.060;21.960;2023-05-10T06:41:11;6.03;;;2.80;;
68484;SDS011;55472;50.060;21.960;2023-05-10T06:43:37;8.13;;;3.00;;
68484;SDS011;55472;50.060;21.960;2023-05-10T06:46:06;7.53;;;2.42;;
68484;SDS011;55472;50.060;21.960;2023-05-10T06:48:32;7.10;;;2.95;;
68484;SDS011;55472;50.060;21.960;2023-05-10T06:51:00;6.90;;;2.88;;
68484;SDS011;55472;50.060;21.960;2023-05-10T06:53:26;5.97;;;2.90;;
68484;SDS011;55472;50.060;21.960;2023-05-10T06:55:52;6.90;;;2.90;;
68484;SDS011;55472;50.060;21.960;2023-05-10T06:58:18;8.85;;;2.90;;
68484;SDS011;55472;50.060;21.960;2023-05-10T07:00:45;7.43;;;3.03;;
68484;SDS011;55472;50.060;21.960;2023-05-10T07:03:12;5.72;;;2.95;;
68484;SDS011;55472;50.060;21.960;2023-05-10T07:05:38;10.07;;;2.83;;
68484;SDS011;55472;50.060;21.960;2023-05-10T07:08:04;25.45;;;12.07;;
68484;SDS011;55472;50.060;21.960;2023-05-10T07:10:30;12.30;;;4.22;;
68484;SDS011;55472;50.060;21.960;2023-05-10T07:12:56;9.15;;;2.83;;
68484;SDS011;55472;50.060;21.960;2023-05-10T07:15:22;6.70;;;3.17;;
68484;SDS011;55472;50.060;21.960;2023-05-10T07:17:48;6.83;;;2.80;;
68484;SDS011;55472;50.060;21.960;2023-05-10T07:20:15;7.93;;;3.20;;
68484;SDS011;55472;50.060;21.960;2023-05-10T07:22:41;6.93;;;2.30;;
68484;SDS011;55472;50.060;21.960;2023-05-10T07:25:07;5.82;;;2.47;;
68484;SDS011;55472;50.060;21.960;2023-05-10T07:27:33;5.37;;;2.20;;
68484;SDS011;55472;50.060;21.960;2023-05-10T07:29:59;9.75;;;3.63;;
68484;SDS011;55472;50.060;21.960;2023-05-10T07:32:26;6.50;;;2.83;;
68484;SDS011;55472;50.060;21.960;2023-05-10T07:34:52;6.00;;;2.63;;
68484;SDS011;55472;50.060;21.960;2023-05-10T07:37:18;5.32;;;2.53;;
68484;SDS011;55472;50.060;21.960;2023-05-10T07:39:45;5.03;;;2.53;;
68484;SDS011;55472;50.060;21.960;2023-05-10T07:42:11;4.83;;;2.00;;
68484;SDS011;55472;50.060;21.960;2023-05-10T07:44:37;4.80;;;2.40;;
68484;SDS011;55472;50.060;21.960;2023-05-10T07:47:03;5.70;;;2.38;;
68484;SDS011;55472;50.060;21.960;2023-05-10T07:49:29;4.43;;;2.08;;
68484;SDS011;55472;50.060;21.960;2023-05-10T07:51:55;5.13;;;1.67;;
68484;SDS011;55472;50.060;21.960;2023-05-10T07:54:22;5.63;;;1.87;;
68484;SDS011;55472;50.060;21.960;2023-05-10T07:56:50;4.25;;;1.73;;
68484;SDS011;55472;50.060;21.960;2023-05-10T07:59:16;6.68;;;1.98;;
68484;SDS011;55472;50.060;21.960;2023-05-10T08:01:43;4.65;;;1.80;;
68484;SDS011;55472;50.060;21.960;2023-05-10T08:04:10;6.63;;;1.50;;
68484;SDS011;55472;50.060;21.960;2023-05-10T08:06:36;8.73;;;1.80;;
68484;SDS011;55472;50.060;21.960;2023-05-10T08:09:03;6.03;;;1.90;;
68484;SDS011;55472;50.060;21.960;2023-05-10T08:11:29;4.28;;;1.80;;
68484;SDS011;55472;50.060;21.960;2023-05-10T08:13:55;4.95;;;1.70;;
68484;SDS011;55472;50.060;21.960;2023-05-10T08:16:21;3.73;;;1.60;;
68484;SDS011;55472;50.060;21.960;2023-05-10T08:18:47;4.75;;;1.75;;
68484;SDS011;55472;50.060;21.960;2023-05-10T08:21:14;4.10;;;1.47;;
68484;SDS011;55472;50.060;21.960;2023-05-10T08:23:41;4.87;;;1.67;;
68484;SDS011;55472;50.060;21.960;2023-05-10T08:26:08;4.03;;;1.53;;
68484;SDS011;55472;50.060;21.960;2023-05-10T08:28:35;4.07;;;1.67;;
68484;SDS011;55472;50.060;21.960;2023-05-10T08:31:01;4.68;;;1.83;;
68484;SDS011;55472;50.060;21.960;2023-05-10T08:33:27;5.32;;;1.70;;
68484;SDS011;55472;50.060;21.960;2023-05-10T08:35:53;6.10;;;1.90;;
68484;SDS011;55472;50.060;21.960;2023-05-10T08:38:20;8.73;;;3.03;;
68484;SDS011;55472;50.060;21.960;2023-05-10T08:40:46;5.97;;;2.30;;
68484;SDS011;55472;50.060;21.960;2023-05-10T08:43:16;5.60;;;2.03;;
68484;SDS011;55472;50.060;21.960;2023-05-10T08:45:42;6.97;;;2.35;;
68484;SDS011;55472;50.060;21.960;2023-05-10T08:48:13;5.10;;;1.70;;
68484;SDS011;55472;50.060;21.960;2023-05-10T08:50:41;5.77;;;1.77;;
68484;SDS011;55472;50.060;21.960;2023-05-10T08:53:12;5.75;;;1.60;;
68484;SDS011;55472;50.060;21.960;2023-05-10T08:55:39;4.95;;;1.98;;
68484;SDS011;55472;50.060;21.960;2023-05-10T08:58:07;4.80;;;1.50;;
68484;SDS011;55472;50.060;21.960;2023-05-10T09:00:35;4.60;;;1.40;;
68484;SDS011;55472;50.060;21.960;2023-05-10T09:03:03;6.60;;;1.73;;
68484;SDS011;55472;50.060;21.960;2023-05-10T09:05:31;4.97;;;1.73;;
68484;SDS011;55472;50.060;21.960;2023-05-10T09:07:58;6.65;;;1.70;;
68484;SDS011;55472;50.060;21.960;2023-05-10T09:10:25;5.32;;;1.50;;
68484;SDS011;55472;50.060;21.960;2023-05-10T09:12:53;4.28;;;1.60;;
68484;SDS011;55472;50.060;21.960;2023-05-10T09:15:22;5.22;;;1.70;;
68484;SDS011;55472;50.060;21.960;2023-05-10T09:17:49;6.60;;;1.50;;
68484;SDS011;55472;50.060;21.960;2023-05-10T09:20:15;3.93;;;1.63;;
68484;SDS011;55472;50.060;21.960;2023-05-10T09:22:43;8.25;;;2.25;;
68484;SDS011;55472;50.060;21.960;2023-05-10T09:27:38;4.20;;;1.90;;
68484;SDS011;55472;50.060;21.960;2023-05-10T09:30:05;4.70;;;1.80;;
68484;SDS011;55472;50.060;21.960;2023-05-10T09:32:40;5.60;;;2.07;;
68484;SDS011;55472;50.060;21.960;2023-05-10T09:37:40;5.05;;;2.00;;
68484;SDS011;55472;50.060;21.960;2023-05-10T09:40:27;4.03;;;1.80;;
68484;SDS011;55472;50.060;21.960;2023-05-10T09:42:59;4.15;;;1.58;;
68484;SDS011;55472;50.060;21.960;2023-05-10T09:45:28;5.83;;;2.10;;
68484;SDS011;55472;50.060;21.960;2023-05-10T09:48:00;4.95;;;2.10;;
68484;SDS011;55472;50.060;21.960;2023-05-10T09:50:28;4.55;;;2.00;;
68484;SDS011;55472;50.060;21.960;2023-05-10T09:52:57;6.78;;;1.90;;
68484;SDS011;55472;50.060;21.960;2023-05-10T09:55:26;4.18;;;1.73;;
68484;SDS011;55472;50.060;21.960;2023-05-10T09:58:10;6.03;;;2.20;;
68484;SDS011;55472;50.060;21.960;2023-05-10T10:00:38;5.25;;;1.80;;
68484;SDS011;55472;50.060;21.960;2023-05-10T10:03:07;5.20;;;1.90;;
68484;SDS011;55472;50.060;21.960;2023-05-10T10:05:45;4.53;;;2.10;;
68484;SDS011;55472;50.060;21.960;2023-05-10T10:08:13;8.70;;;1.73;;
68484;SDS011;55472;50.060;21.960;2023-05-10T10:10:41;3.70;;;1.70;;
68484;SDS011;55472;50.060;21.960;2023-05-10T10:13:09;4.65;;;1.90;;
68484;SDS011;55472;50.060;21.960;2023-05-10T10:15:35;5.00;;;2.08;;
68484;SDS011;55472;50.060;21.960;2023-05-10T10:18:02;4.82;;;1.70;;
68484;SDS011;55472;50.060;21.960;2023-05-10T10:20:31;5.68;;;2.30;;
68484;SDS011;55472;50.060;21.960;2023-05-10T10:22:57;6.53;;;2.40;;
68484;SDS011;55472;50.060;21.960;2023-05-10T10:25:23;6.72;;;2.63;;
68484;SDS011;55472;50.060;21.960;2023-05-10T10:30:37;5.38;;;1.83;;
68484;SDS011;55472;50.060;21.960;2023-05-10T10:33:18;5.45;;;1.98;;
68484;SDS011;55472;50.060;21.960;2023-05-10T10:36:29;8.70;;;3.23;;
68484;SDS011;55472;50.060;21.960;2023-05-10T10:39:02;10.32;;;3.80;;
68484;SDS011;55472;50.060;21.960;2023-05-10T10:41:39;4.47;;;1.98;;
68484;SDS011;55472;50.060;21.960;2023-05-10T10:55:20;3.78;;;1.77;;
68484;SDS011;55472;50.060;21.960;2023-05-10T10:57:52;5.72;;;1.70;;
68484;SDS011;55472;50.060;21.960;2023-05-10T11:00:29;3.80;;;1.77;;
68484;SDS011;55472;50.060;21.960;2023-05-10T11:05:47;6.65;;;1.70;;
68484;SDS011;55472;50.060;21.960;2023-05-10T11:08:17;4.70;;;1.83;;
68484;SDS011;55472;50.060;21.960;2023-05-10T11:11:01;5.82;;;2.00;;
68484;SDS011;55472;50.060;21.960;2023-05-10T11:19:02;7.97;;;1.70;;
68484;SDS011;55472;50.060;21.960;2023-05-10T11:21:31;5.13;;;1.80;;
68484;SDS011;55472;50.060;21.960;2023-05-10T11:23:59;5.45;;;1.80;;
68484;SDS011;55472;50.060;21.960;2023-05-10T11:26:30;6.03;;;1.88;;
68484;SDS011;55472;50.060;21.960;2023-05-10T11:28:59;4.77;;;1.70;;
68484;SDS011;55472;50.060;21.960;2023-05-10T11:31:27;6.38;;;1.73;;
68484;SDS011;55472;50.060;21.960;2023-05-10T11:33:57;5.00;;;1.80;;
68484;SDS011;55472;50.060;21.960;2023-05-10T11:36:27;4.20;;;1.60;;
68484;SDS011;55472;50.060;21.960;2023-05-10T11:39:01;3.42;;;1.50;;
68484;SDS011;55472;50.060;21.960;2023-05-10T11:41:28;3.13;;;1.33;;
68484;SDS011;55472;50.060;21.960;2023-05-10T11:43:56;3.20;;;1.30;;
68484;SDS011;55472;50.060;21.960;2023-05-10T11:46:24;6.03;;;1.30;;
68484;SDS011;55472;50.060;21.960;2023-05-10T11:48:53;4.88;;;1.40;;
68484;SDS011;55472;50.060;21.960;2023-05-10T11:51:27;3.53;;;1.40;;
68484;SDS011;55472;50.060;21.960;2023-05-10T11:53:53;6.93;;;1.70;;
68484;SDS011;55472;50.060;21.960;2023-05-10T11:56:21;6.65;;;1.70;;
68484;SDS011;55472;50.060;21.960;2023-05-10T11:58:52;5.35;;;1.73;;
68484;SDS011;55472;50.060;21.960;2023-05-10T12:01:23;6.47;;;1.90;;
68484;SDS011;55472;50.060;21.960;2023-05-10T12:03:51;5.80;;;1.75;;
68484;SDS011;55472;50.060;21.960;2023-05-10T12:06:20;4.80;;;1.50;;
68484;SDS011;55472;50.060;21.960;2023-05-10T12:08:47;6.28;;;1.52;;
68484;SDS011;55472;50.060;21.960;2023-05-10T12:11:19;4.18;;;1.48;;
68484;SDS011;55472;50.060;21.960;2023-05-10T12:13:46;3.67;;;1.38;;
68484;SDS011;55472;50.060;21.960;2023-05-10T12:16:16;3.58;;;1.30;;
68484;SDS011;55472;50.060;21.960;2023-05-10T12:18:56;7.43;;;2.17;;
68484;SDS011;55472;50.060;21.960;2023-05-10T12:21:24;5.18;;;1.80;;
68484;SDS011;55472;50.060;21.960;2023-05-10T12:23:56;8.07;;;2.10;;
68484;SDS011;55472;50.060;21.960;2023-05-10T12:26:27;4.43;;;1.80;;
68484;SDS011;55472;50.060;21.960;2023-05-10T12:28:54;4.22;;;1.90;;
68484;SDS011;55472;50.060;21.960;2023-05-10T12:31:21;6.17;;;2.20;;
68484;SDS011;55472;50.060;21.960;2023-05-10T12:33:47;6.32;;;1.90;;
68484;SDS011;55472;50.060;21.960;2023-05-10T12:36:15;5.63;;;1.92;;
68484;SDS011;55472;50.060;21.960;2023-05-10T12:38:43;6.63;;;1.90;;
68484;SDS011;55472;50.060;21.960;2023-05-10T12:41:17;4.78;;;2.05;;
68484;SDS011;55472;50.060;21.960;2023-05-10T12:43:44;5.87;;;1.47;;
68484;SDS011;55472;50.060;21.960;2023-05-10T12:46:16;3.90;;;1.77;;
68484;SDS011;55472;50.060;21.960;2023-05-10T12:48:43;4.30;;;1.70;;
68484;SDS011;55472;50.060;21.960;2023-05-10T12:51:17;5.68;;;1.90;;
68484;SDS011;55472;50.060;21.960;2023-05-10T12:53:47;6.10;;;1.80;;
68484;SDS011;55472;50.060;21.960;2023-05-10T12:56:13;4.93;;;1.90;;
68484;SDS011;55472;50.060;21.960;2023-05-10T12:58:39;7.95;;;1.92;;
68484;SDS011;55472;50.060;21.960;2023-05-10T13:01:05;5.15;;;2.30;;
68484;SDS011;55472;50.060;21.960;2023-05-10T13:03:31;7.80;;;1.73;;
68484;SDS011;55472;50.060;21.960;2023-05-10T13:05:58;5.00;;;1.83;;
68484;SDS011;55472;50.060;21.960;2023-05-10T13:08:24;4.97;;;1.60;;
68484;SDS011;55472;50.060;21.960;2023-05-10T13:10:50;4.53;;;1.60;;
68484;SDS011;55472;50.060;21.960;2023-05-10T13:13:16;6.35;;;1.45;;
68484;SDS011;55472;50.060;21.960;2023-05-10T13:15:43;3.70;;;1.60;;
68484;SDS011;55472;50.060;21.960;2023-05-10T13:18:09;7.27;;;1.97;;
68484;SDS011;55472;50.060;21.960;2023-05-10T13:20:35;4.63;;;1.60;;
68484;SDS011;55472;50.060;21.960;2023-05-10T13:23:02;4.38;;;1.60;;
68484;SDS011;55472;50.060;21.960;2023-05-10T13:25:28;4.43;;;2.03;;
68484;SDS011;55472;50.060;21.960;2023-05-10T13:27:54;6.25;;;1.95;;
68484;SDS011;55472;50.060;21.960;2023-05-10T13:30:21;5.57;;;1.85;;
68484;SDS011;55472;50.060;21.960;2023-05-10T13:32:48;4.13;;;1.60;;
68484;SDS011;55472;50.060;21.960;2023-05-10T13:35:14;7.03;;;1.70;;
68484;SDS011;55472;50.060;21.960;2023-05-10T13:37:40;5.18;;;1.65;;
68484;SDS011;55472;50.060;21.960;2023-05-10T13:40:07;4.72;;;2.10;;
68484;SDS011;55472;50.060;21.960;2023-05-10T13:42:33;10.35;;;1.98;;
68484;SDS011;55472;50.060;21.960;2023-05-10T13:45:00;5.97;;;1.60;;
68484;SDS011;55472;50.060;21.960;2023-05-10T13:47:27;8.07;;;1.83;;
68484;SDS011;55472;50.060;21.960;2023-05-10T13:49:53;5.05;;;1.77;;
68484;SDS011;55472;50.060;21.960;2023-05-10T13:52:21;5.63;;;1.60;;
68484;SDS011;55472;50.060;21.960;2023-05-10T13:54:47;4.68;;;1.90;;
68484;SDS011;55472;50.060;21.960;2023-05-10T13:57:13;4.20;;;1.73;;
68484;SDS011;55472;50.060;21.960;2023-05-10T13:59:42;3.50;;;1.42;;
68484;SDS011;55472;50.060;21.960;2023-05-10T14:02:08;6.97;;;2.03;;
68484;SDS011;55472;50.060;21.960;2023-05-10T14:04:34;5.93;;;1.60;;
68484;SDS011;55472;50.060;21.960;2023-05-10T14:07:00;7.05;;;2.60;;
68484;SDS011;55472;50.060;21.960;2023-05-10T14:09:27;6.00;;;1.87;;
68484;SDS011;55472;50.060;21.960;2023-05-10T14:11:53;6.82;;;1.73;;
68484;SDS011;55472;50.060;21.960;2023-05-10T14:14:19;9.13;;;1.80;;
68484;SDS011;55472;50.060;21.960;2023-05-10T14:16:45;5.95;;;1.70;;
68484;SDS011;55472;50.060;21.960;2023-05-10T14:19:11;6.05;;;1.50;;
68484;SDS011;55472;50.060;21.960;2023-05-10T14:21:37;6.17;;;1.60;;
68484;SDS011;55472;50.060;21.960;2023-05-10T14:24:04;5.88;;;1.77;;
68484;SDS011;55472;50.060;21.960;2023-05-10T14:26:31;4.90;;;1.73;;
68484;SDS011;55472;50.060;21.960;2023-05-10T14:28:59;6.80;;;1.70;;
68484;SDS011;55472;50.060;21.960;2023-05-10T14:31:25;7.47;;;2.00;;
68484;SDS011;55472;50.060;21.960;2023-05-10T14:33:52;6.53;;;2.07;;
68484;SDS011;55472;50.060;21.960;2023-05-10T14:36:18;6.18;;;1.83;;
68484;SDS011;55472;50.060;21.960;2023-05-10T14:38:44;5.70;;;1.65;;
68484;SDS011;55472;50.060;21.960;2023-05-10T14:41:10;5.50;;;1.63;;
68484;SDS011;55472;50.060;21.960;2023-05-10T14:43:42;7.40;;;2.20;;
68484;SDS011;55472;50.060;21.960;2023-05-10T14:46:08;6.10;;;1.53;;
68484;SDS011;55472;50.060;21.960;2023-05-10T14:48:34;4.18;;;1.73;;
68484;SDS011;55472;50.060;21.960;2023-05-10T14:51:00;5.03;;;1.40;;
68484;SDS011;55472;50.060;21.960;2023-05-10T14:53:27;7.18;;;1.40;;
68484;SDS011;55472;50.060;21.960;2023-05-10T14:55:53;5.60;;;1.40;;
68484;SDS011;55472;50.060;21.960;2023-05-10T14:58:19;6.27;;;1.60;;
68484;SDS011;55472;50.060;21.960;2023-05-10T15:00:45;4.07;;;1.40;;
68484;SDS011;55472;50.060;21.960;2023-05-10T15:03:12;5.15;;;1.50;;
68484;SDS011;55472;50.060;21.960;2023-05-10T15:05:38;8.13;;;1.70;;
68484;SDS011;55472;50.060;21.960;2023-05-10T15:08:04;4.68;;;1.63;;
68484;SDS011;55472;50.060;21.960;2023-05-10T15:10:34;5.93;;;1.50;;
68484;SDS011;55472;50.060;21.960;2023-05-10T15:13:03;4.55;;;1.60;;
68484;SDS011;55472;50.060;21.960;2023-05-10T15:15:29;4.55;;;1.40;;